sensor_id;sensor_type;location;lat;lon;timestamp;pressure;altitude;pressure_sealevel;temperature;humidity
42111;BME280;27766;52.174;5.456;2024-01-30T00:02:00;102485.78;;;7.81;100.00
42111;BME280;27766;52.174;5.456;2024-01-30T00:04:27;102483.13;;;7.80;100.00
42111;BME280;27766;52.174;5.456;2024-01-30T00:06:55;102490.13;;;7.82;100.00
42111;BME280;27766;52.174;5.456;2024-01-30T00:09:22;102485.78;;;7.81;100.00
42111;BME280;27766;52.174;5.456;2024-01-30T00:11:49;102489.22;;;7.82;100.00
42111;BME280;27766;52.174;5.456;2024-01-30T00:14:16;102487.47;;;7.81;100.00
42111;BME280;27766;52.174;5.456;2024-01-30T00:16:44;102491.00;;;7.83;100.00
42111;BME280;27766;52.174;5.456;2024-01-30T00:19:12;102490.94;;;7.81;100.00
42111;BME280;27766;52.174;5.456;2024-01-30T00:21:39;102489.94;;;7.79;100.00
42111;BME280;27766;52.174;5.456;2024-01-30T00:24:06;102488.16;;;7.78;100.00
42111;BME280;27766;52.174;5.456;2024-01-30T00:26:34;102488.81;;;7.74;100.00
42111;BME280;27766;52.174;5.456;2024-01-30T00:29:01;102487.84;;;7.72;100.00
42111;BME280;27766;52.174;5.456;2024-01-30T00:31:28;102486.06;;;7.71;100.00
42111;BME280;27766;52.174;5.456;2024-01-30T00:33:56;102485.09;;;7.69;100.00
42111;BME280;27766;52.174;5.456;2024-01-30T00:36:23;102480.75;;;7.68;100.00
42111;BME280;27766;52.174;5.456;2024-01-30T00:38:50;102476.84;;;7.59;100.00
42111;BME280;27766;52.174;5.456;2024-01-30T00:41:18;102478.88;;;7.65;100.00
42111;BME280;27766;52.174;5.456;2024-01-30T00:43:46;102484.13;;;7.67;100.00
42111;BME280;27766;52.174;5.456;2024-01-30T00:46:13;102477.13;;;7.64;100.00
42111;BME280;27766;52.174;5.456;2024-01-30T00:48:40;102478.09;;;7.66;100.00
42111;BME280;27766;52.174;5.456;2024-01-30T00:51:07;102467.41;;;7.60;100.00
42111;BME280;27766;52.174;5.456;2024-01-30T00:53:35;102472.84;;;7.65;100.00
42111;BME280;27766;52.174;5.456;2024-01-30T00:56:02;102477.19;;;7.66;100.00
42111;BME280;27766;52.174;5.456;2024-01-30T00:58:30;102485.00;;;7.67;100.00
42111;BME280;27766;52.174;5.456;2024-01-30T01:00:57;102482.25;;;7.64;100.00
42111;BME280;27766;52.174;5.456;2024-01-30T01:03:25;102478.44;;;7.57;100.00
42111;BME280;27766;52.174;5.456;2024-01-30T01:05:52;102476.66;;;7.56;100.00
42111;BME280;27766;52.174;5.456;2024-01-30T01:08:19;102475.78;;;7.56;100.00
42111;BME280;27766;52.174;5.456;2024-01-30T01:10:47;102469.84;;;7.57;100.00
42111;BME280;27766;52.174;5.456;2024-01-30T01:13:14;102471.34;;;7.53;100.00
42111;BME280;27766;52.174;5.456;2024-01-30T01:15:42;102471.25;;;7.52;100.00
42111;BME280;27766;52.174;5.456;2024-01-30T01:18:10;102470.91;;;7.45;100.00
42111;BME280;27766;52.174;5.456;2024-01-30T01:20:37;102470.47;;;7.38;100.00
42111;BME280;27766;52.174;5.456;2024-01-30T01:23:04;102460.78;;;7.34;100.00
42111;BME280;27766;52.174;5.456;2024-01-30T01:25:31;102468.25;;;7.29;100.00
42111;BME280;27766;52.174;5.456;2024-01-30T01:27:58;102451.56;;;7.22;100.00
42111;BME280;27766;52.174;5.456;2024-01-30T01:30:28;102447.81;;;7.17;100.00
42111;BME280;27766;52.174;5.456;2024-01-30T01:32:56;102436.09;;;7.07;100.00
42111;BME280;27766;52.174;5.456;2024-01-30T01:35:25;102434.06;;;7.02;100.00
42111;BME280;27766;52.174;5.456;2024-01-30T01:37:53;102441.00;;;7.03;100.00
42111;BME280;27766;52.174;5.456;2024-01-30T01:40:24;102445.97;;;7.00;100.00
42111;BME280;27766;52.174;5.456;2024-01-30T01:42:52;102437.06;;;6.94;100.00
42111;BME280;27766;52.174;5.456;2024-01-30T01:45:20;102453.59;;;6.98;100.00
42111;BME280;27766;52.174;5.456;2024-01-30T01:47:51;102450.16;;;6.97;100.00
42111;BME280;27766;52.174;5.456;2024-01-30T01:50:20;102459.00;;;6.88;100.00
42111;BME280;27766;52.174;5.456;2024-01-30T01:52:48;102452.88;;;6.86;100.00
42111;BME280;27766;52.174;5.456;2024-01-30T01:55:16;102449.88;;;6.78;100.00
42111;BME280;27766;52.174;5.456;2024-01-30T01:57:49;102449.13;;;6.65;100.00
42111;BME280;27766;52.174;5.456;2024-01-30T02:00:17;102458.19;;;6.59;100.00
42111;BME280;27766;52.174;5.456;2024-01-30T02:02:46;102450.69;;;6.48;100.00
42111;BME280;27766;52.174;5.456;2024-01-30T02:05:15;102450.50;;;6.45;100.00
42111;BME280;27766;52.174;5.456;2024-01-30T02:07:43;102457.13;;;6.42;100.00
42111;BME280;27766;52.174;5.456;2024-01-30T02:10:10;102450.75;;;6.35;100.00
42111;BME280;27766;52.174;5.456;2024-01-30T02:12:38;102449.84;;;6.34;100.00
42111;BME280;27766;52.174;5.456;2024-01-30T02:15:05;102438.69;;;6.34;100.00
42111;BME280;27766;52.174;5.456;2024-01-30T02:17:34;102438.56;;;6.32;100.00
42111;BME280;27766;52.174;5.456;2024-01-30T02:20:01;102430.69;;;6.29;100.00
42111;BME280;27766;52.174;5.456;2024-01-30T02:22:32;102443.53;;;6.29;100.00
42111;BME280;27766;52.174;5.456;2024-01-30T02:25:01;102437.13;;;6.23;100.00
42111;BME280;27766;52.174;5.456;2024-01-30T02:27:28;102441.19;;;6.19;100.00
42111;BME280;27766;52.174;5.456;2024-01-30T02:29:55;102445.34;;;6.17;100.00
42111;BME280;27766;52.174;5.456;2024-01-30T02:32:22;102443.28;;;6.11;100.00
42111;BME280;27766;52.174;5.456;2024-01-30T02:34:49;102451.97;;;6.13;100.00
42111;BME280;27766;52.174;5.456;2024-01-30T02:37:17;102458.59;;;6.10;100.00
42111;BME280;27766;52.174;5.456;2024-01-30T02:39:44;102452.28;;;6.05;100.00
42111;BME280;27766;52.174;5.456;2024-01-30T02:42:12;102446.06;;;6.01;100.00
42111;BME280;27766;52.174;5.456;2024-01-30T02:44:39;102442.09;;;6.06;100.00
42111;BME280;27766;52.174;5.456;2024-01-30T02:47:06;102438.03;;;6.10;100.00
42111;BME280;27766;52.174;5.456;2024-01-30T02:49:33;102444.88;;;6.09;100.00
42111;BME280;27766;52.174;5.456;2024-01-30T02:52:00;102440.22;;;6.04;100.00
42111;BME280;27766;52.174;5.456;2024-01-30T02:54:28;102428.97;;;6.01;100.00
42111;BME280;27766;52.174;5.456;2024-01-30T02:56:57;102433.31;;;6.02;100.00
42111;BME280;27766;52.174;5.456;2024-01-30T02:59:24;102408.59;;;6.05;100.00
42111;BME280;27766;52.174;5.456;2024-01-30T03:01:52;102418.09;;;6.06;100.00
42111;BME280;27766;52.174;5.456;2024-01-30T03:04:19;102417.72;;;5.99;100.00
42111;BME280;27766;52.174;5.456;2024-01-30T03:06:46;102416.69;;;5.97;100.00
42111;BME280;27766;52.174;5.456;2024-01-30T03:09:17;102415.31;;;6.02;100.00
42111;BME280;27766;52.174;5.456;2024-01-30T03:11:45;102405.03;;;6.02;100.00
42111;BME280;27766;52.174;5.456;2024-01-30T03:14:12;102407.81;;;6.06;100.00
42111;BME280;27766;52.174;5.456;2024-01-30T03:16:39;102402.75;;;6.07;100.00
42111;BME280;27766;52.174;5.456;2024-01-30T03:19:07;102396.13;;;6.11;100.00
42111;BME280;27766;52.174;5.456;2024-01-30T03:21:36;102398.47;;;6.21;100.00
42111;BME280;27766;52.174;5.456;2024-01-30T03:24:03;102388.38;;;6.24;100.00
42111;BME280;27766;52.174;5.456;2024-01-30T03:26:30;102391.75;;;6.38;100.00
42111;BME280;27766;52.174;5.456;2024-01-30T03:28:58;102379.53;;;6.49;100.00
42111;BME280;27766;52.174;5.456;2024-01-30T03:31:25;102385.94;;;6.56;100.00
42111;BME280;27766;52.174;5.456;2024-01-30T03:33:52;102389.84;;;6.64;100.00
42111;BME280;27766;52.174;5.456;2024-01-30T03:36:19;102387.63;;;6.70;100.00
42111;BME280;27766;52.174;5.456;2024-01-30T03:38:47;102395.97;;;6.81;100.00
42111;BME280;27766;52.174;5.456;2024-01-30T03:41:14;102391.03;;;6.84;100.00
42111;BME280;27766;52.174;5.456;2024-01-30T03:43:41;102390.47;;;6.90;100.00
42111;BME280;27766;52.174;5.456;2024-01-30T03:46:09;102377.00;;;6.94;100.00
42111;BME280;27766;52.174;5.456;2024-01-30T03:48:36;102373.78;;;6.98;100.00
42111;BME280;27766;52.174;5.456;2024-01-30T03:51:03;102373.09;;;7.01;100.00
42111;BME280;27766;52.174;5.456;2024-01-30T03:53:31;102370.69;;;7.04;100.00
42111;BME280;27766;52.174;5.456;2024-01-30T03:55:58;102365.53;;;7.04;100.00
42111;BME280;27766;52.174;5.456;2024-01-30T03:58:25;102365.72;;;7.07;100.00
42111;BME280;27766;52.174;5.456;2024-01-30T04:00:52;102372.81;;;7.11;100.00
42111;BME280;27766;52.174;5.456;2024-01-30T04:03:20;102366.06;;;7.13;100.00
42111;BME280;27766;52.174;5.456;2024-01-30T04:05:47;102368.09;;;7.19;100.00
42111;BME280;27766;52.174;5.456;2024-01-30T04:08:14;102380.06;;;7.18;100.00
42111;BME280;27766;52.174;5.456;2024-01-30T04:10:41;102367.66;;;7.11;100.00
42111;BME280;27766;52.174;5.456;2024-01-30T04:13:09;102370.69;;;7.19;100.00
42111;BME280;27766;52.174;5.456;2024-01-30T04:15:39;102375.19;;;7.23;100.00
42111;BME280;27766;52.174;5.456;2024-01-30T04:18:06;102383.81;;;7.23;100.00
42111;BME280;27766;52.174;5.456;2024-01-30T04:20:33;102370.75;;;7.20;100.00
42111;BME280;27766;52.174;5.456;2024-01-30T04:23:00;102378.75;;;7.25;100.00
42111;BME280;27766;52.174;5.456;2024-01-30T04:25:27;102379.16;;;7.33;100.00
42111;BME280;27766;52.174;5.456;2024-01-30T04:27:55;102377.41;;;7.32;100.00
42111;BME280;27766;52.174;5.456;2024-01-30T04:30:22;102372.41;;;7.35;100.00
42111;BME280;27766;52.174;5.456;2024-01-30T04:32:49;102374.91;;;7.33;100.00
42111;BME280;27766;52.174;5.456;2024-01-30T04:35:16;102370.81;;;7.37;100.00
42111;BME280;27766;52.174;5.456;2024-01-30T04:37:43;102353.59;;;7.36;100.00
42111;BME280;27766;52.174;5.456;2024-01-30T04:40:11;102353.75;;;7.39;100.00
42111;BME280;27766;52.174;5.456;2024-01-30T04:42:38;102355.34;;;7.37;100.00
42111;BME280;27766;52.174;5.456;2024-01-30T04:45:05;102338.78;;;7.32;100.00
42111;BME280;27766;52.174;5.456;2024-01-30T04:47:33;102348.75;;;7.42;100.00
42111;BME280;27766;52.174;5.456;2024-01-30T04:50:01;102344.59;;;7.44;100.00
42111;BME280;27766;52.174;5.456;2024-01-30T04:52:28;102342.00;;;7.44;100.00
42111;BME280;27766;52.174;5.456;2024-01-30T04:54:56;102345.66;;;7.48;100.00
42111;BME280;27766;52.174;5.456;2024-01-30T04:57:23;102343.00;;;7.46;100.00
42111;BME280;27766;52.174;5.456;2024-01-30T04:59:50;102342.66;;;7.56;100.00
42111;BME280;27766;52.174;5.456;2024-01-30T05:02:17;102347.03;;;7.57;100.00
42111;BME280;27766;52.174;5.456;2024-01-30T05:04:44;102352.25;;;7.59;100.00
42111;BME280;27766;52.174;5.456;2024-01-30T05:07:12;102359.38;;;7.63;100.00
42111;BME280;27766;52.174;5.456;2024-01-30T05:09:39;102362.00;;;7.65;100.00
42111;BME280;27766;52.174;5.456;2024-01-30T05:12:07;102341.00;;;7.57;100.00
42111;BME280;27766;52.174;5.456;2024-01-30T05:14:34;102357.91;;;7.68;100.00
42111;BME280;27766;52.174;5.456;2024-01-30T05:17:01;102357.19;;;7.71;100.00
42111;BME280;27766;52.174;5.456;2024-01-30T05:19:30;102348.84;;;7.75;100.00
42111;BME280;27766;52.174;5.456;2024-01-30T05:21:57;102354.13;;;7.78;100.00
42111;BME280;27766;52.174;5.456;2024-01-30T05:24:24;102355.19;;;7.82;100.00
42111;BME280;27766;52.174;5.456;2024-01-30T05:26:54;102354.50;;;7.84;100.00
42111;BME280;27766;52.174;5.456;2024-01-30T05:29:21;102347.00;;;7.89;100.00
42111;BME280;27766;52.174;5.456;2024-01-30T05:31:48;102344.44;;;7.89;100.00
42111;BME280;27766;52.174;5.456;2024-01-30T05:34:16;102337.56;;;7.89;100.00
42111;BME280;27766;52.174;5.456;2024-01-30T05:36:43;102333.44;;;7.93;100.00
42111;BME280;27766;52.174;5.456;2024-01-30T05:39:11;102326.59;;;7.93;100.00
42111;BME280;27766;52.174;5.456;2024-01-30T05:41:38;102319.75;;;7.94;100.00
42111;BME280;27766;52.174;5.456;2024-01-30T05:44:05;102331.06;;;7.96;100.00
42111;BME280;27766;52.174;5.456;2024-01-30T05:46:33;102336.09;;;7.95;100.00
42111;BME280;27766;52.174;5.456;2024-01-30T05:49:01;102348.38;;;7.99;100.00
42111;BME280;27766;52.174;5.456;2024-01-30T05:51:28;102349.78;;;7.93;100.00
42111;BME280;27766;52.174;5.456;2024-01-30T05:53:55;102338.13;;;8.00;100.00
42111;BME280;27766;52.174;5.456;2024-01-30T05:56:22;102339.97;;;8.03;100.00
42111;BME280;27766;52.174;5.456;2024-01-30T05:58:49;102339.09;;;8.02;100.00
42111;BME280;27766;52.174;5.456;2024-01-30T06:01:20;102346.09;;;8.05;100.00
42111;BME280;27766;52.174;5.456;2024-01-30T06:03:47;102338.13;;;8.00;100.00
42111;BME280;27766;52.174;5.456;2024-01-30T06:06:14;102355.31;;;8.00;100.00
42111;BME280;27766;52.174;5.456;2024-01-30T06:08:42;102354.47;;;8.01;100.00
42111;BME280;27766;52.174;5.456;2024-01-30T06:11:11;102345.78;;;7.99;100.00
42111;BME280;27766;52.174;5.456;2024-01-30T06:13:39;102352.00;;;8.02;100.00
42111;BME280;27766;52.174;5.456;2024-01-30T06:16:09;102352.13;;;8.05;100.00
42111;BME280;27766;52.174;5.456;2024-01-30T06:18:38;102351.34;;;8.06;100.00
42111;BME280;27766;52.174;5.456;2024-01-30T06:21:05;102334.50;;;7.97;100.00
42111;BME280;27766;52.174;5.456;2024-01-30T06:23:35;102345.25;;;8.04;100.00
42111;BME280;27766;52.174;5.456;2024-01-30T06:26:02;102353.84;;;8.05;100.00
42111;BME280;27766;52.174;5.456;2024-01-30T06:28:29;102345.69;;;8.14;100.00
42111;BME280;27766;52.174;5.456;2024-01-30T06:30:56;102339.09;;;8.19;100.00
42111;BME280;27766;52.174;5.456;2024-01-30T06:33:24;102342.56;;;8.19;100.00
42111;BME280;27766;52.174;5.456;2024-01-30T06:35:52;102357.59;;;8.28;100.00
42111;BME280;27766;52.174;5.456;2024-01-30T06:38:19;102349.22;;;8.32;100.00
42111;BME280;27766;52.174;5.456;2024-01-30T06:40:46;102355.59;;;8.39;100.00
42111;BME280;27766;52.174;5.456;2024-01-30T06:43:13;102354.78;;;8.40;100.00
42111;BME280;27766;52.174;5.456;2024-01-30T06:45:41;102357.22;;;8.37;100.00
42111;BME280;27766;52.174;5.456;2024-01-30T06:48:09;102357.34;;;8.40;100.00
42111;BME280;27766;52.174;5.456;2024-01-30T06:50:36;102367.66;;;8.40;100.00
42111;BME280;27766;52.174;5.456;2024-01-30T06:53:04;102366.81;;;8.39;100.00
42111;BME280;27766;52.174;5.456;2024-01-30T06:55:31;102367.53;;;8.37;100.00
42111;BME280;27766;52.174;5.456;2024-01-30T06:57:58;102367.44;;;8.35;100.00
42111;BME280;27766;52.174;5.456;2024-01-30T07:00:25;102363.34;;;8.39;100.00
42111;BME280;27766;52.174;5.456;2024-01-30T07:02:52;102370.84;;;8.34;100.00
42111;BME280;27766;52.174;5.456;2024-01-30T07:05:20;102375.91;;;8.33;100.00
42111;BME280;27766;52.174;5.456;2024-01-30T07:07:49;102371.72;;;8.35;100.00
42111;BME280;27766;52.174;5.456;2024-01-30T07:10:16;102372.75;;;8.38;100.00
42111;BME280;27766;52.174;5.456;2024-01-30T07:12:44;102373.56;;;8.37;100.00
42111;BME280;27766;52.174;5.456;2024-01-30T07:15:11;102367.53;;;8.37;100.00
42111;BME280;27766;52.174;5.456;2024-01-30T07:17:39;102355.59;;;8.39;100.00
42111;BME280;27766;52.174;5.456;2024-01-30T07:20:06;102366.56;;;8.35;100.00
42111;BME280;27766;52.174;5.456;2024-01-30T07:22:34;102378.66;;;8.36;100.00
42111;BME280;27766;52.174;5.456;2024-01-30T07:25:02;102371.78;;;8.36;100.00
42111;BME280;27766;52.174;5.456;2024-01-30T07:27:29;102361.16;;;8.30;100.00
42111;BME280;27766;52.174;5.456;2024-01-30T07:29:56;102387.38;;;8.38;100.00
42111;BME280;27766;52.174;5.456;2024-01-30T07:32:23;102376.94;;;8.36;100.00
42111;BME280;27766;52.174;5.456;2024-01-30T07:34:51;102379.63;;;8.38;100.00
42111;BME280;27766;52.174;5.456;2024-01-30T07:37:33;102387.44;;;8.39;100.00
42111;BME280;27766;52.174;5.456;2024-01-30T07:40:01;102384.41;;;8.47;100.00
42111;BME280;27766;52.174;5.456;2024-01-30T07:42:28;102388.09;;;8.52;100.00
42111;BME280;27766;52.174;5.456;2024-01-30T07:44:55;102390.44;;;8.47;100.00
42111;BME280;27766;52.174;5.456;2024-01-30T07:47:23;102389.00;;;8.52;100.00
42111;BME280;27766;52.174;5.456;2024-01-30T07:49:50;102393.19;;;8.50;100.00
42111;BME280;27766;52.174;5.456;2024-01-30T07:52:18;102399.16;;;8.49;100.00
42111;BME280;27766;52.174;5.456;2024-01-30T07:54:49;102379.31;;;8.48;100.00
42111;BME280;27766;52.174;5.456;2024-01-30T07:57:17;102395.94;;;8.53;100.00
42111;BME280;27766;52.174;5.456;2024-01-30T07:59:45;102396.06;;;8.57;100.00
42111;BME280;27766;52.174;5.456;2024-01-30T08:02:13;102401.72;;;8.66;100.00
42111;BME280;27766;52.174;5.456;2024-01-30T08:04:40;102402.59;;;8.66;100.00
42111;BME280;27766;52.174;5.456;2024-01-30T08:07:08;102411.59;;;8.75;100.00
42111;BME280;27766;52.174;5.456;2024-01-30T08:09:35;102404.03;;;8.78;100.00
42111;BME280;27766;52.174;5.456;2024-01-30T08:12:03;102397.91;;;8.76;100.00
42111;BME280;27766;52.174;5.456;2024-01-30T08:14:30;102401.13;;;8.88;100.00
42111;BME280;27766;52.174;5.456;2024-01-30T08:16:57;102406.19;;;8.86;100.00
42111;BME280;27766;52.174;5.456;2024-01-30T08:19:25;102405.59;;;8.92;100.00
42111;BME280;27766;52.174;5.456;2024-01-30T08:21:52;102406.72;;;8.97;100.00
42111;BME280;27766;52.174;5.456;2024-01-30T08:24:19;102404.28;;;9.00;100.00
42111;BME280;27766;52.174;5.456;2024-01-30T08:26:49;102404.22;;;8.99;100.00
42111;BME280;27766;52.174;5.456;2024-01-30T08:29:16;102403.72;;;9.06;100.00
42111;BME280;27766;52.174;5.456;2024-01-30T08:31:44;102404.75;;;9.10;100.00
42111;BME280;27766;52.174;5.456;2024-01-30T08:34:13;102396.91;;;9.08;100.00
42111;BME280;27766;52.174;5.456;2024-01-30T08:36:40;102409.19;;;9.12;100.00
42111;BME280;27766;52.174;5.456;2024-01-30T08:39:08;102406.09;;;9.19;100.00
42111;BME280;27766;52.174;5.456;2024-01-30T08:41:36;102405.28;;;9.21;100.00
42111;BME280;27766;52.174;5.456;2024-01-30T08:44:03;102411.84;;;9.32;100.00
42111;BME280;27766;52.174;5.456;2024-01-30T08:46:31;102404.41;;;9.38;100.00
42111;BME280;27766;52.174;5.456;2024-01-30T08:48:58;102412.34;;;9.43;100.00
42111;BME280;27766;52.174;5.456;2024-01-30T08:51:26;102409.28;;;9.50;100.00
42111;BME280;27766;52.174;5.456;2024-01-30T08:53:53;102400.63;;;9.49;100.00
42111;BME280;27766;52.174;5.456;2024-01-30T08:56:21;102409.56;;;9.56;100.00
42111;BME280;27766;52.174;5.456;2024-01-30T08:58:50;102406.66;;;9.68;100.00
42111;BME280;27766;52.174;5.456;2024-01-30T09:01:17;102403.44;;;9.74;100.00
42111;BME280;27766;52.174;5.456;2024-01-30T09:03:44;102410.56;;;9.78;100.00
42111;BME280;27766;52.174;5.456;2024-01-30T09:06:14;102407.22;;;9.80;100.00
42111;BME280;27766;52.174;5.456;2024-01-30T09:08:41;102416.97;;;9.86;100.00
42111;BME280;27766;52.174;5.456;2024-01-30T09:11:12;102416.50;;;9.95;100.00
42111;BME280;27766;52.174;5.456;2024-01-30T09:13:40;102412.41;;;10.00;100.00
42111;BME280;27766;52.174;5.456;2024-01-30T09:16:07;102410.41;;;10.12;100.00
42111;BME280;27766;52.174;5.456;2024-01-30T09:18:35;102412.66;;;10.24;100.00
42111;BME280;27766;52.174;5.456;2024-01-30T09:21:02;102423.31;;;10.32;100.00
42111;BME280;27766;52.174;5.456;2024-01-30T09:23:29;102417.97;;;10.47;100.00
42111;BME280;27766;52.174;5.456;2024-01-30T09:25:57;102417.44;;;10.54;100.00
42111;BME280;27766;52.174;5.456;2024-01-30T09:28:24;102423.22;;;10.68;100.00
42111;BME280;27766;52.174;5.456;2024-01-30T09:30:53;102425.91;;;10.71;100.00
42111;BME280;27766;52.174;5.456;2024-01-30T09:33:21;102422.72;;;10.77;100.00
42111;BME280;27766;52.174;5.456;2024-01-30T09:35:48;102431.69;;;10.85;100.00
42111;BME280;27766;52.174;5.456;2024-01-30T09:38:15;102428.03;;;10.80;100.00
42111;BME280;27766;52.174;5.456;2024-01-30T09:40:42;102430.78;;;10.85;100.00
42111;BME280;27766;52.174;5.456;2024-01-30T09:43:17;102436.16;;;10.89;100.00
42111;BME280;27766;52.174;5.456;2024-01-30T09:45:50;102438.00;;;10.92;100.00
42111;BME280;27766;52.174;5.456;2024-01-30T09:48:19;102444.28;;;10.97;100.00
42111;BME280;27766;52.174;5.456;2024-01-30T09:50:46;102447.69;;;10.96;100.00
42111;BME280;27766;52.174;5.456;2024-01-30T09:53:14;102450.13;;;10.93;100.00
42111;BME280;27766;52.174;5.456;2024-01-30T09:55:43;102442.09;;;10.87;100.00
42111;BME280;27766;52.174;5.456;2024-01-30T09:58:11;102447.63;;;10.95;100.00
42111;BME280;27766;52.174;5.456;2024-01-30T10:00:39;102455.13;;;10.88;100.00
42111;BME280;27766;52.174;5.456;2024-01-30T10:03:06;102449.78;;;10.84;100.00
42111;BME280;27766;52.174;5.456;2024-01-30T10:05:35;102453.44;;;10.89;100.00
42111;BME280;27766;52.174;5.456;2024-01-30T10:08:08;102452.00;;;10.76;100.00
42111;BME280;27766;52.174;5.456;2024-01-30T10:10:35;102454.94;;;10.84;100.00
42111;BME280;27766;52.174;5.456;2024-01-30T10:13:03;102448.91;;;10.85;100.00
42111;BME280;27766;52.174;5.456;2024-01-30T10:15:32;102452.41;;;10.85;100.00
42111;BME280;27766;52.174;5.456;2024-01-30T10:17:59;102453.84;;;10.79;100.00
42111;BME280;27766;52.174;5.456;2024-01-30T10:20:26;102456.56;;;10.82;100.00
42111;BME280;27766;52.174;5.456;2024-01-30T10:22:54;102444.66;;;10.85;100.00
42111;BME280;27766;52.174;5.456;2024-01-30T10:25:22;102443.69;;;10.83;100.00
42111;BME280;27766;52.174;5.456;2024-01-30T10:27:55;102437.13;;;10.91;100.00
42111;BME280;27766;52.174;5.456;2024-01-30T10:30:23;102441.19;;;11.06;100.00
42111;BME280;27766;52.174;5.456;2024-01-30T10:32:50;102445.25;;;10.99;100.00
42111;BME280;27766;52.174;5.456;2024-01-30T10:35:18;102458.56;;;11.08;100.00
42111;BME280;27766;52.174;5.456;2024-01-30T10:37:49;102461.91;;;11.06;100.00
42111;BME280;27766;52.174;5.456;2024-01-30T10:40:19;102429.22;;;11.09;100.00
42111;BME280;27766;52.174;5.456;2024-01-30T10:42:50;102446.03;;;11.19;100.00
42111;BME280;27766;52.174;5.456;2024-01-30T10:45:22;102439.03;;;11.17;100.00
42111;BME280;27766;52.174;5.456;2024-01-30T10:47:50;102448.28;;;11.10;100.00
42111;BME280;27766;52.174;5.456;2024-01-30T10:50:18;102459.50;;;11.11;100.00
42111;BME280;27766;52.174;5.456;2024-01-30T10:52:47;102449.16;;;11.11;100.00
42111;BME280;27766;52.174;5.456;2024-01-30T10:55:15;102464.00;;;11.15;100.00
42111;BME280;27766;52.174;5.456;2024-01-30T10:57:43;102461.44;;;11.15;100.00
42111;BME280;27766;52.174;5.456;2024-01-30T11:00:13;102452.91;;;10.98;100.00
42111;BME280;27766;52.174;5.456;2024-01-30T11:02:45;102462.66;;;11.03;100.00
42111;BME280;27766;52.174;5.456;2024-01-30T11:05:13;102462.09;;;11.11;100.00
42111;BME280;27766;52.174;5.456;2024-01-30T11:07:40;102460.72;;;11.19;100.00
42111;BME280;27766;52.174;5.456;2024-01-30T11:10:08;102472.91;;;11.21;100.00
42111;BME280;27766;52.174;5.456;2024-01-30T11:12:40;102470.31;;;11.21;100.00
42111;BME280;27766;52.174;5.456;2024-01-30T11:15:16;102476.69;;;11.30;100.00
42111;BME280;27766;52.174;5.456;2024-01-30T11:17:50;102471.75;;;11.36;100.00
42111;BME280;27766;52.174;5.456;2024-01-30T11:20:23;102471.66;;;11.33;100.00
42111;BME280;27766;52.174;5.456;2024-01-30T11:22:53;102473.16;;;11.49;100.00
42111;BME280;27766;52.174;5.456;2024-01-30T11:25:22;102478.34;;;11.49;100.00
42111;BME280;27766;52.174;5.456;2024-01-30T11:27:52;102474.44;;;11.37;100.00
42111;BME280;27766;52.174;5.456;2024-01-30T11:30:24;102471.69;;;11.13;100.00
42111;BME280;27766;52.174;5.456;2024-01-30T11:33:04;102476.31;;;11.20;100.00
42111;BME280;27766;52.174;5.456;2024-01-30T11:35:34;102488.72;;;11.06;100.00
42111;BME280;27766;52.174;5.456;2024-01-30T11:38:03;102491.38;;;11.08;100.00
42111;BME280;27766;52.174;5.456;2024-01-30T11:40:31;102493.97;;;11.08;100.00
42111;BME280;27766;52.174;5.456;2024-01-30T11:43:02;102490.66;;;10.91;100.00
42111;BME280;27766;52.174;5.456;2024-01-30T11:45:30;102502.25;;;10.80;100.00
42111;BME280;27766;52.174;5.456;2024-01-30T11:47:58;102503.56;;;10.70;100.00
42111;BME280;27766;52.174;5.456;2024-01-30T11:50:32;102524.59;;;10.58;100.00
42111;BME280;27766;52.174;5.456;2024-01-30T11:53:00;102515.75;;;10.53;100.00
42111;BME280;27766;52.174;5.456;2024-01-30T11:55:31;102510.28;;;10.47;100.00
42111;BME280;27766;52.174;5.456;2024-01-30T11:58:01;102516.09;;;10.41;100.00
42111;BME280;27766;52.174;5.456;2024-01-30T12:00:29;102515.56;;;10.30;100.00
42111;BME280;27766;52.174;5.456;2024-01-30T12:02:58;102512.66;;;10.24;100.00
42111;BME280;27766;52.174;5.456;2024-01-30T12:05:28;102514.44;;;10.25;100.00
42111;BME280;27766;52.174;5.456;2024-01-30T12:07:56;102517.78;;;10.22;100.00
42111;BME280;27766;52.174;5.456;2024-01-30T12:10:27;102523.56;;;10.17;100.00
42111;BME280;27766;52.174;5.456;2024-01-30T12:12:55;102523.44;;;10.13;100.00
42111;BME280;27766;52.174;5.456;2024-01-30T12:15:22;102531.09;;;10.12;100.00
42111;BME280;27766;52.174;5.456;2024-01-30T12:17:50;102528.38;;;10.09;100.00
42111;BME280;27766;52.174;5.456;2024-01-30T12:20:18;102523.63;;;10.00;100.00
42111;BME280;27766;52.174;5.456;2024-01-30T12:22:48;102539.03;;;9.97;100.00
42111;BME280;27766;52.174;5.456;2024-01-30T12:25:20;102527.78;;;9.96;100.00
42111;BME280;27766;52.174;5.456;2024-01-30T12:27:49;102534.50;;;9.93;100.00
42111;BME280;27766;52.174;5.456;2024-01-30T12:30:20;102543.19;;;9.93;100.00
42111;BME280;27766;52.174;5.456;2024-01-30T12:32:50;102560.75;;;9.82;100.00
42111;BME280;27766;52.174;5.456;2024-01-30T12:35:20;102576.66;;;9.38;100.00
42111;BME280;27766;52.174;5.456;2024-01-30T12:37:49;102581.75;;;9.19;100.00
42111;BME280;27766;52.174;5.456;2024-01-30T12:40:17;102576.59;;;9.03;100.00
42111;BME280;27766;52.174;5.456;2024-01-30T12:42:47;102569.28;;;9.11;100.00
42111;BME280;27766;52.174;5.456;2024-01-30T12:45:17;102567.63;;;9.13;100.00
42111;BME280;27766;52.174;5.456;2024-01-30T12:47:50;102559.00;;;9.12;100.00
42111;BME280;27766;52.174;5.456;2024-01-30T12:50:18;102575.72;;;9.19;100.00
42111;BME280;27766;52.174;5.456;2024-01-30T12:52:45;102578.31;;;9.19;100.00